Time;durP1;ratioP1;P1;durP2;ratioP2;P2;SDS_P1;SDS_P2;PMS_P1;PMS_P2;Temp;Humidity;BMP_temperature;BMP_pressure;BME280_temperature;BME280_humidity;BME280_pressure;Samples;Min_cycle;Max_cycle;Signal;HPM_P1;HPM_P2
2022/11/15 00:01:09;;;;;;;;;13.00;9.00;;;;;13.92;63.91;100453.75;5074072;27;45381;-40
2022/11/15 00:03:35;;;;;;;;;8.50;7.00;;;;;13.89;63.75;100453.03;5074846;27;45415;-40
2022/11/15 00:06:03;;;;;;;;;7.00;7.00;;;;;13.85;63.63;100447.06;5077252;27;45331;-40
2022/11/15 00:08:30;;;;;;;;;9.00;9.00;;;;;13.81;63.97;100442.84;5078518;27;45699;-40
2022/11/15 00:10:57;;;;;;;;;8.00;8.00;;;;;13.78;63.93;100448.28;5080398;27;45842;-40
2022/11/15 00:13:22;;;;;;;;;8.00;7.50;;;;;13.75;63.88;100446.63;5078726;27;46148;-40
2022/11/15 00:15:48;;;;;;;;;4.50;4.50;;;;;13.71;63.97;100445.06;5073709;28;45442;-40
2022/11/15 00:18:15;;;;;;;;;9.50;9.00;;;;;13.67;64.15;100441.72;5073474;28;58164;-40
2022/11/15 00:20:41;;;;;;;;;10.00;7.75;;;;;13.64;63.91;100435.75;5088289;27;46156;-39
2022/11/15 00:23:06;;;;;;;;;9.75;8.50;;;;;13.63;63.89;100431.38;5066989;28;46230;-40
2022/11/15 00:25:32;;;;;;;;;11.00;10.00;;;;;13.61;64.28;100430.59;5071780;27;45620;-37
2022/11/15 00:27:58;;;;;;;;;12.75;9.25;;;;;13.61;64.12;100422.72;5070962;27;45509;-40
2022/11/15 00:30:24;;;;;;;;;7.25;7.25;;;;;13.59;63.90;100428.03;5065529;28;45454;-40
2022/11/15 00:32:49;;;;;;;;;6.00;5.50;;;;;13.59;63.72;100422.78;5078572;28;45416;-40
2022/11/15 00:35:15;;;;;;;;;10.75;7.75;;;;;13.58;63.96;100422.84;5076815;28;45379;-40
2022/11/15 00:37:40;;;;;;;;;8.50;8.50;;;;;13.56;63.55;100420.28;5072412;28;52801;-43
2022/11/15 00:40:07;;;;;;;;;5.00;5.00;;;;;13.56;63.34;100412.41;5068515;28;45374;-40
2022/11/15 00:42:32;;;;;;;;;7.25;7.25;;;;;13.53;63.88;100423.06;5079405;28;46476;-40
2022/11/15 00:44:58;;;;;;;;;7.25;5.75;;;;;13.53;63.69;100412.56;5073836;27;62484;-40
2022/11/15 00:47:23;;;;;;;;;6.00;5.00;;;;;13.53;63.26;100406.41;5079634;27;49762;-40
2022/11/15 00:49:49;;;;;;;;;1.00;1.00;;;;;13.51;63.44;100403.00;5063982;27;45555;-40
2022/11/15 00:52:14;;;;;;;;;6.00;4.50;;;;;13.48;63.55;100412.75;5076010;27;66654;-40
2022/11/15 00:54:39;;;;;;;;;5.00;4.00;;;;;13.45;63.58;100407.63;5075663;27;45467;-40
2022/11/15 00:57:05;;;;;;;;;6.00;6.00;;;;;13.46;63.51;100403.22;5062575;28;45228;-40
2022/11/15 00:59:30;;;;;;;;;9.25;7.00;;;;;13.46;63.11;100409.34;5062243;27;45496;-40
2022/11/15 01:01:55;;;;;;;;;8.00;5.50;;;;;13.44;63.01;100398.03;5068689;27;71041;-40
2022/11/15 01:04:21;;;;;;;;;5.50;3.75;;;;;13.45;63.26;100398.88;5077441;27;47180;-40
2022/11/15 01:06:46;;;;;;;;;3.25;3.00;;;;;13.41;62.90;100394.69;5078084;27;56958;-38
2022/11/15 01:09:13;;;;;;;;;4.25;3.75;;;;;13.39;62.89;100392.13;5062162;28;45526;-38
2022/11/15 01:11:38;;;;;;;;;5.00;4.00;;;;;13.38;63.08;100393.03;5069943;27;45474;-38
2022/11/15 01:14:03;;;;;;;;;6.25;2.75;;;;;13.33;63.04;100389.75;5066348;27;68153;-39
2022/11/15 01:16:29;;;;;;;;;5.25;2.00;;;;;13.33;62.92;100388.91;5068549;27;45494;-39
2022/11/15 01:18:54;;;;;;;;;5.00;3.25;;;;;13.31;62.84;100386.34;5065256;28;45388;-39
2022/11/15 01:21:20;;;;;;;;;5.75;3.00;;;;;13.31;62.61;100383.72;5069836;28;46631;-39
2022/11/15 01:23:45;;;;;;;;;3.00;2.75;;;;;13.31;62.43;100378.47;5073691;27;45318;-39
2022/11/15 01:26:13;;;;;;;;;4.25;3.00;;;;;13.29;62.73;100372.41;5075476;27;45465;-39
2022/11/15 01:28:40;;;;;;;;;1.50;1.00;;;;;13.29;62.92;100375.03;5078674;28;45523;-39
2022/11/15 01:31:09;;;;;;;;;6.75;3.50;;;;;13.28;62.80;100374.19;5063486;28;46105;-38
2022/11/15 01:33:38;;;;;;;;;3.00;3.00;;;;;13.28;62.97;100366.28;5060404;28;45289;-38
2022/11/15 01:36:09;;;;;;;;;4.25;3.00;;;;;13.28;62.56;100365.44;5052730;27;45418;-42
2022/11/15 01:38:35;;;;;;;;;5.50;3.25;;;;;13.28;63.16;100360.19;5061497;28;45367;-38
2022/11/15 01:41:00;;;;;;;;;5.00;3.75;;;;;13.30;62.60;100358.34;5072861;28;75684;-38
2022/11/15 01:43:28;;;;;;;;;4.00;3.75;;;;;13.28;62.49;100361.03;5066635;28;63493;-38
2022/11/15 01:46:01;;;;;;;;;7.00;3.00;;;;;13.27;62.78;100353.22;5074244;27;45474;-38
2022/11/15 01:48:31;;;;;;;;;3.75;3.25;;;;;13.25;62.36;100355.91;5074543;27;45561;-38
2022/11/15 01:50:58;;;;;;;;;3.25;3.25;;;;;13.24;62.18;100348.97;5057896;27;45367;-38
2022/11/15 01:53:25;;;;;;;;;7.75;3.00;;;;;13.21;62.36;100343.84;5060417;27;47618;-38
2022/11/15 01:55:51;;;;;;;;;5.75;4.25;;;;;13.22;62.56;100344.69;5093440;27;45374;-38
2022/11/15 01:58:16;;;;;;;;;4.25;3.00;;;;;13.20;62.42;100336.88;5075191;27;45552;-38
2022/11/15 02:00:42;;;;;;;;;4.50;4.00;;;;;13.15;62.45;100332.75;5064500;28;74473;-39
2022/11/15 02:03:07;;;;;;;;;4.00;3.00;;;;;13.13;62.46;100327.53;5055023;28;63389;-39
2022/11/15 02:05:35;;;;;;;;;5.00;4.25;;;;;13.11;62.47;100318.88;5089242;27;59769;-39
2022/11/15 02:08:01;;;;;;;;;4.00;3.00;;;;;13.09;61.95;100318.09;5065684;27;45254;-38
2022/11/15 02:10:27;;;;;;;;;4.75;3.75;;;;;13.05;61.95;100317.38;5079489;28;46177;-39
2022/11/15 02:12:54;;;;;;;;;5.00;2.00;;;;;13.00;62.36;100314.09;5072479;28;45720;-38
2022/11/15 02:15:20;;;;;;;;;3.50;2.25;;;;;12.93;61.80;100309.19;5069115;28;45650;-39
2022/11/15 02:18:13;;;;;;;;;2.00;2.00;;;;;12.89;62.29;100305.81;5057644;28;45470;-39
2022/11/15 02:20:52;;;;;;;;;4.00;2.75;;;;;12.87;62.33;100303.28;5064849;28;47356;-39
2022/11/15 02:23:41;;;;;;;;;4.00;3.75;;;;;12.84;62.21;100294.69;5064997;28;45931;-38
2022/11/15 02:26:41;;;;;;;;;4.75;4.00;;;;;12.81;62.33;100282.53;5061636;27;46293;-39
2022/11/15 02:29:10;;;;;;;;;4.00;3.25;;;;;12.79;62.24;100294.88;5071365;27;45400;-39
2022/11/15 02:32:04;;;;;;;;;4.50;2.00;;;;;12.78;61.66;100295.78;5072592;27;45436;-39
2022/11/15 02:34:48;;;;;;;;;6.50;3.00;;;;;12.75;61.84;100288.06;5071384;28;45302;-38
2022/11/15 02:37:21;;;;;;;;;4.50;3.00;;;;;12.71;61.50;100282.09;5066798;27;45502;-38
2022/11/15 02:40:02;;;;;;;;;4.25;2.25;;;;;12.66;61.65;100278.81;5070550;27;45437;-38
2022/11/15 02:45:29;;;;;;;;;4.00;3.00;;;;;12.60;61.64;100268.56;5074617;28;45729;-39
2022/11/15 02:47:57;;;;;;;;;4.00;3.25;;;;;12.60;61.70;100270.34;5071539;28;45491;-38
2022/11/15 02:50:26;;;;;;;;;5.75;3.00;;;;;12.59;61.75;100261.63;5074337;28;45332;-39
2022/11/15 02:52:51;;;;;;;;;4.00;3.00;;;;;12.58;61.60;100259.91;5060893;27;45690;-38
2022/11/15 02:55:34;;;;;;;;;3.00;2.00;;;;;12.57;61.61;100254.72;5067083;27;46893;-38
2022/11/15 02:58:07;;;;;;;;;4.00;3.00;;;;;12.56;61.71;100250.41;5062823;28;45359;-38
2022/11/15 03:00:35;;;;;;;;;3.00;3.00;;;;;12.54;61.54;100240.81;5068792;28;45169;-38
2022/11/15 03:03:16;;;;;;;;;3.50;3.00;;;;;12.53;61.28;100240.88;5069257;28;45473;-39
2022/11/15 03:05:47;;;;;;;;;5.25;4.00;;;;;12.51;61.08;100230.44;5070763;28;45382;-39
2022/11/15 03:08:26;;;;;;;;;3.75;2.50;;;;;12.50;61.32;100227.88;5074402;28;45452;-38
2022/11/15 03:11:15;;;;;;;;;5.00;2.50;;;;;12.48;61.25;100224.47;5065979;27;45693;-38
2022/11/15 03:14:17;;;;;;;;;3.00;3.00;;;;;12.46;61.40;100221.06;5060258;28;45431;-39
2022/11/15 03:17:18;;;;;;;;;4.00;3.00;;;;;12.43;61.61;100213.31;5069039;28;45462;-39
2022/11/15 03:19:48;;;;;;;;;7.25;4.00;;;;;12.44;61.72;100217.66;5070844;28;46527;-39
2022/11/15 03:22:20;;;;;;;;;7.00;4.00;;;;;12.45;61.43;100214.13;5057868;28;45470;-39
2022/11/15 03:24:47;;;;;;;;;5.75;4.00;;;;;12.44;61.63;100209.78;5054133;27;48288;-38
2022/11/15 03:27:15;;;;;;;;;6.25;5.00;;;;;12.44;61.81;100208.00;5072216;27;45406;-39
2022/11/15 03:29:45;;;;;;;;;7.50;4.00;;;;;12.45;61.40;100203.63;5069126;27;45374;-39
2022/11/15 03:32:20;;;;;;;;;6.00;4.50;;;;;12.42;61.68;100194.09;5075571;27;45505;-39
2022/11/15 03:35:17;;;;;;;;;5.00;4.00;;;;;12.34;61.47;100186.56;5063878;27;45370;-39
2022/11/15 03:38:08;;;;;;;;;5.00;3.50;;;;;12.40;61.20;100193.31;5062610;28;45464;-39
2022/11/15 03:40:46;;;;;;;;;4.00;4.00;;;;;12.42;61.44;100196.72;5076323;28;45314;-38
2022/11/15 03:43:25;;;;;;;;;4.00;4.00;;;;;12.43;61.78;100185.31;5068471;28;45466;-38
2022/11/15 03:46:00;;;;;;;;;4.00;3.75;;;;;12.45;61.41;100188.72;5078716;27;46137;-39
2022/11/15 03:48:30;;;;;;;;;5.00;3.00;;;;;12.42;61.65;100185.38;5087269;27;45808;-39
2022/11/15 03:50:56;;;;;;;;;3.25;3.00;;;;;12.47;61.66;100188.66;5075688;27;45355;-39
2022/11/15 03:53:21;;;;;;;;;6.00;4.00;;;;;12.47;61.27;100186.88;5072550;27;64337;-39
2022/11/15 03:55:47;;;;;;;;;3.00;3.00;;;;;12.45;61.51;100177.38;5075174;27;45602;-38
2022/11/15 03:58:12;;;;;;;;;5.25;2.75;;;;;12.44;61.49;100176.50;5071885;27;69403;-40
2022/11/15 04:00:37;;;;;;;;;4.50;2.00;;;;;12.42;61.47;100180.97;5075415;27;45300;-39
2022/11/15 04:03:03;;;;;;;;;4.75;4.00;;;;;12.40;61.63;100179.34;5071713;27;72617;-38
2022/11/15 04:05:28;;;;;;;;;5.00;3.25;;;;;12.38;61.60;100171.53;5076337;28;64774;-39
2022/11/15 04:07:53;;;;;;;;;3.00;2.50;;;;;12.37;61.23;100174.22;5082319;27;45399;-39
2022/11/15 04:10:19;;;;;;;;;4.00;3.00;;;;;12.35;61.38;100172.50;5074941;27;66205;-38
2022/11/15 04:12:47;;;;;;;;;2.50;2.25;;;;;12.35;61.36;100169.88;5072937;27;57678;-39
2022/11/15 04:15:15;;;;;;;;;4.25;4.25;;;;;12.34;61.33;100168.19;5070510;28;46317;-39
2022/11/15 04:17:45;;;;;;;;;5.00;2.00;;;;;12.34;61.24;100165.56;5080631;27;45348;-39
2022/11/15 04:25:52;;;;;;;;;4.25;3.00;;;;;12.31;61.50;100160.44;5079187;27;45375;-39
2022/11/15 04:28:17;;;;;;;;;5.75;3.50;;;;;12.30;61.72;100169.22;5103664;27;45447;-38
2022/11/15 04:30:43;;;;;;;;;3.25;2.75;;;;;12.27;61.49;100166.75;5048816;28;45753;-38
2022/11/15 04:33:08;;;;;;;;;2.75;2.75;;;;;12.26;61.35;100161.56;5071672;27;45495;-39
2022/11/15 04:35:33;;;;;;;;;4.50;4.25;;;;;12.25;61.51;100157.22;5069082;27;61131;-38
2022/11/15 04:37:59;;;;;;;;;5.25;2.75;;;;;12.23;61.65;100159.06;5077121;27;45401;-39
2022/11/15 04:40:25;;;;;;;;;4.00;2.00;;;;;12.22;61.36;100146.91;5072719;28;45324;-39
2022/11/15 04:42:50;;;;;;;;;4.00;3.50;;;;;12.22;61.83;100145.13;5074517;27;46010;-39
2022/11/15 04:45:16;;;;;;;;;4.00;3.00;;;;;12.23;61.60;100148.59;5071054;28;66845;-39
2022/11/15 04:47:44;;;;;;;;;4.50;2.00;;;;;12.23;61.17;100144.19;5080046;27;67445;-39
2022/11/15 04:50:13;;;;;;;;;5.25;2.00;;;;;12.23;61.74;100133.69;5077329;27;45497;-39
2022/11/15 04:52:42;;;;;;;;;5.25;2.00;;;;;12.23;61.60;100130.22;5070418;28;45370;-38
2022/11/15 04:55:08;;;;;;;;;4.75;2.00;;;;;12.25;61.43;100123.13;5064854;27;45315;-38
2022/11/15 04:57:33;;;;;;;;;3.25;3.00;;;;;12.22;61.83;100116.25;5068391;27;45832;-38
2022/11/15 04:59:59;;;;;;;;;3.00;3.00;;;;;12.22;61.58;100125.91;5074457;27;59355;-38
2022/11/15 05:04:18;;;;;;;;;4.50;2.75;;;;;12.19;61.78;100112.91;5073014;27;58640;-38
2022/11/15 05:05:09;;;;;;;;;4.75;2.25;;;;;12.19;61.64;100116.38;5066878;28;45417;-38
2022/11/15 05:07:35;;;;;;;;;5.00;2.00;;;;;12.19;62.20;100111.13;5078541;27;55780;-38
2022/11/15 05:10:00;;;;;;;;;5.00;3.00;;;;;12.19;61.90;100112.91;5076393;27;46844;-38
2022/11/15 05:12:25;;;;;;;;;4.00;2.00;;;;;12.17;62.02;100107.75;5070989;28;61374;-38
2022/11/15 05:14:51;;;;;;;;;4.75;3.00;;;;;12.13;62.05;100111.41;5070423;28;68032;-38
2022/11/15 05:17:16;;;;;;;;;2.50;2.00;;;;;12.11;62.03;100113.22;5073430;27;65396;-38
2022/11/15 05:19:41;;;;;;;;;5.25;2.00;;;;;12.07;61.83;100104.66;5068273;27;60980;-38
2022/11/15 05:22:06;;;;;;;;;4.00;2.00;;;;;12.06;62.28;100100.34;5067420;28;70887;-38
2022/11/15 05:24:32;;;;;;;;;4.50;2.00;;;;;12.04;62.34;100102.19;5068984;28;66177;-39
2022/11/15 05:26:57;;;;;;;;;2.00;2.00;;;;;12.01;62.29;100097.06;5076973;27;66041;-39
2022/11/15 05:29:22;;;;;;;;;3.75;3.50;;;;;11.99;62.42;100098.91;5070058;27;54350;-38
2022/11/15 05:31:48;;;;;;;;;3.75;3.00;;;;;11.98;62.43;100098.97;5073031;27;50662;-39
2022/11/15 05:34:13;;;;;;;;;4.75;3.00;;;;;11.94;62.38;100106.94;5067659;28;71375;-39
2022/11/15 05:36:42;;;;;;;;;6.00;4.00;;;;;11.94;62.29;100108.72;5077139;27;67148;-39
2022/11/15 05:39:07;;;;;;;;;6.75;2.25;;;;;11.94;62.47;100100.88;5066120;28;45239;-39
2022/11/15 05:41:39;;;;;;;;;6.25;3.00;;;;;11.94;62.81;100116.59;5073191;27;45501;-39
2022/11/15 05:44:07;;;;;;;;;4.75;4.00;;;;;11.94;62.67;100116.59;5073059;28;47145;-39
2022/11/15 05:46:33;;;;;;;;;5.25;4.50;;;;;11.93;62.99;100120.13;5063928;28;45319;-39
2022/11/15 05:48:58;;;;;;;;;6.00;4.50;;;;;11.93;63.01;100115.75;5072074;28;61574;-39
2022/11/15 05:51:25;;;;;;;;;4.00;4.00;;;;;11.96;63.17;100118.22;5067414;27;45387;-39
2022/11/15 05:53:51;;;;;;;;;5.00;3.00;;;;;11.98;62.97;100106.84;5066542;28;46026;-39
2022/11/15 05:56:16;;;;;;;;;4.25;3.50;;;;;11.98;63.09;100099.81;5078771;28;71298;-39
2022/11/15 05:58:42;;;;;;;;;4.00;3.25;;;;;11.97;63.24;100095.50;5077169;27;62938;-39
2022/11/15 06:01:08;;;;;;;;;5.50;3.00;;;;;11.96;63.50;100088.53;5072303;27;45437;-39
2022/11/15 06:03:33;;;;;;;;;5.00;4.75;;;;;11.93;63.33;100081.66;5099626;27;64069;-39
2022/11/15 06:05:59;;;;;;;;;4.25;2.75;;;;;11.96;63.23;100073.66;5066904;28;59065;-39
2022/11/15 06:08:24;;;;;;;;;4.00;3.00;;;;;12.00;63.41;100070.91;5078898;27;64330;-39
2022/11/15 06:10:49;;;;;;;;;5.00;4.00;;;;;11.99;63.05;100071.81;5068409;28;64323;-40
2022/11/15 06:13:14;;;;;;;;;3.50;3.25;;;;;11.99;63.25;100064.81;5082419;27;51409;-40
2022/11/15 06:15:40;;;;;;;;;6.00;5.00;;;;;12.03;63.73;100052.41;5067158;27;67252;-41
2022/11/15 06:18:05;;;;;;;;;4.00;4.00;;;;;12.05;63.68;100061.06;5074978;28;45276;-40
2022/11/15 06:20:31;;;;;;;;;6.50;4.00;;;;;12.08;63.66;100058.31;5079844;27;66217;-40
2022/11/15 06:23:00;;;;;;;;;5.50;4.00;;;;;12.11;63.72;100056.41;5067162;27;53507;-39
2022/11/15 06:25:26;;;;;;;;;6.00;4.00;;;;;12.13;63.41;100043.22;5074245;27;45942;-39
2022/11/15 06:27:53;;;;;;;;;6.25;4.25;;;;;12.14;63.32;100051.00;5065292;28;45485;-39
2022/11/15 06:30:19;;;;;;;;;6.25;3.75;;;;;12.13;63.32;100028.34;5064808;28;45703;-39
2022/11/15 06:32:44;;;;;;;;;7.75;4.00;;;;;12.14;63.31;100027.41;5066271;28;45583;-39
2022/11/15 06:35:10;;;;;;;;;4.00;4.00;;;;;12.17;63.40;100033.44;5066299;27;45703;-39
2022/11/15 06:37:35;;;;;;;;;6.75;5.00;;;;;12.18;63.76;100024.63;5065162;27;45299;-39
2022/11/15 06:40:00;;;;;;;;;3.50;3.50;;;;;12.19;63.30;100026.34;5063759;27;52244;-40
2022/11/15 06:42:26;;;;;;;;;5.50;4.75;;;;;12.17;63.48;100017.72;5066765;28;60768;-39
2022/11/15 06:44:51;;;;;;;;;4.75;3.25;;;;;12.18;63.38;100006.28;5063871;27;62322;-39
2022/11/15 06:47:16;;;;;;;;;6.25;4.00;;;;;12.18;63.83;100006.28;5068801;28;45480;-40
2022/11/15 06:49:42;;;;;;;;;7.75;4.50;;;;;12.17;63.59;100012.47;5068764;27;45288;-38
2022/11/15 06:52:07;;;;;;;;;5.50;4.00;;;;;12.15;63.99;100007.28;5068920;28;73099;-38
2022/11/15 06:54:32;;;;;;;;;9.00;4.00;;;;;12.17;63.64;100008.06;5064616;27;69529;-38
2022/11/15 06:56:58;;;;;;;;;8.25;4.75;;;;;12.17;63.98;100004.59;5059785;27;59702;-38
2022/11/15 06:59:23;;;;;;;;;6.50;3.75;;;;;12.17;63.86;99994.94;5071910;28;54526;-39
2022/11/15 07:01:49;;;;;;;;;5.00;3.00;;;;;12.19;64.01;99987.00;5068298;27;60641;-39
2022/11/15 07:04:14;;;;;;;;;4.00;4.00;;;;;12.20;63.67;99992.19;5062019;27;59834;-39
2022/11/15 07:06:40;;;;;;;;;3.00;3.00;;;;;12.20;63.43;99975.59;5077080;27;45697;-39
2022/11/15 07:09:05;;;;;;;;;3.00;3.00;;;;;12.15;63.66;99963.53;5068812;27;54667;-39
2022/11/15 07:11:30;;;;;;;;;4.00;4.00;;;;;12.12;63.72;99963.66;5061830;27;56698;-39
2022/11/15 07:13:56;;;;;;;;;4.00;3.25;;;;;12.11;63.61;99961.09;5063297;27;72767;-39
2022/11/15 07:16:21;;;;;;;;;5.25;3.00;;;;;12.08;63.94;99958.66;5067667;27;59771;-38
2022/11/15 07:18:46;;;;;;;;;4.25;3.25;;;;;12.05;63.83;99969.28;5077412;27;52855;-39
2022/11/15 07:21:15;;;;;;;;;4.75;4.00;;;;;12.05;64.20;99971.91;5069288;28;50344;-43
2022/11/15 07:23:40;;;;;;;;;4.75;3.25;;;;;12.13;63.98;99980.28;5068747;28;45538;-39
2022/11/15 07:26:07;;;;;;;;;6.50;3.25;;;;;12.18;64.43;99985.28;5082040;27;45403;-39
2022/11/15 07:28:32;;;;;;;;;4.50;3.00;;;;;12.23;64.36;99984.16;5073831;27;45438;-39
2022/11/15 07:30:57;;;;;;;;;5.00;3.75;;;;;12.28;63.90;99981.34;5072747;27;45284;-39
2022/11/15 07:33:23;;;;;;;;;4.75;3.75;;;;;12.32;63.96;99985.50;5071354;28;45442;-39
2022/11/15 07:35:48;;;;;;;;;3.00;3.00;;;;;12.34;63.73;99975.78;5083037;27;45355;-39
2022/11/15 07:38:19;;;;;;;;;4.75;4.00;;;;;12.35;63.82;99972.25;5075347;27;60701;-39
2022/11/15 07:40:45;;;;;;;;;6.00;4.25;;;;;12.36;64.17;99960.84;5061918;28;48533;-39
2022/11/15 07:43:10;;;;;;;;;6.50;4.00;;;;;12.36;63.79;99966.09;5075812;28;45457;-39
2022/11/15 07:45:43;;;;;;;;;7.00;4.00;;;;;12.38;64.06;99950.25;5075150;27;69070;-39
2022/11/15 07:48:09;;;;;;;;;4.75;3.50;;;;;12.39;63.93;99949.34;5074250;27;45298;-39
2022/11/15 07:50:34;;;;;;;;;4.25;3.00;;;;;12.42;63.85;99947.44;5057982;28;47443;-39
2022/11/15 07:53:00;;;;;;;;;3.25;3.25;;;;;12.45;63.86;99938.56;5074251;28;53198;-39
2022/11/15 07:55:28;;;;;;;;;6.00;3.25;;;;;12.47;63.93;99934.09;5070814;27;47988;-40
2022/11/15 07:57:53;;;;;;;;;5.25;4.00;;;;;12.48;64.31;99910.41;5074721;28;45656;-40
2022/11/15 08:00:19;;;;;;;;;7.75;3.75;;;;;12.52;64.13;99919.00;5071001;27;45357;-40
2022/11/15 08:02:44;;;;;;;;;3.00;3.00;;;;;12.56;63.61;99917.91;5074104;27;45462;-40
2022/11/15 08:05:10;;;;;;;;;5.25;5.00;;;;;12.58;64.03;99915.22;5072811;27;45438;-40
2022/11/15 08:07:35;;;;;;;;;5.75;4.00;;;;;12.61;63.73;99928.19;5075932;27;65171;-40
2022/11/15 08:10:01;;;;;;;;;4.00;4.00;;;;;12.63;63.74;99913.22;5074524;27;67449;-40
2022/11/15 08:12:28;;;;;;;;;4.00;3.50;;;;;12.63;63.46;99915.84;5071334;28;45854;-40
2022/11/15 08:14:55;;;;;;;;;7.00;4.50;;;;;12.64;63.66;99909.66;5074786;27;45286;-40
2022/11/15 08:17:20;;;;;;;;;5.25;3.75;;;;;12.69;63.78;99910.28;5075194;28;46274;-41
2022/11/15 08:19:45;;;;;;;;;5.75;4.25;;;;;12.73;63.64;99904.81;5080426;27;47252;-40
2022/11/15 08:22:11;;;;;;;;;7.75;4.00;;;;;12.76;63.77;99916.94;5078721;28;45347;-40
2022/11/15 08:24:36;;;;;;;;;7.00;4.00;;;;;12.79;63.53;99914.16;5066922;27;66911;-40
2022/11/15 08:27:01;;;;;;;;;4.50;3.25;;;;;12.83;63.25;99909.59;5072023;28;51119;-40
2022/11/15 08:29:27;;;;;;;;;2.25;2.25;;;;;12.87;63.19;99917.25;5073469;28;52786;-40
2022/11/15 08:31:55;;;;;;;;;6.00;4.75;;;;;12.90;63.41;99905.75;5078512;27;45449;-40
2022/11/15 08:34:20;;;;;;;;;3.50;3.25;;;;;12.95;63.34;99908.16;5069768;28;45364;-40
2022/11/15 08:36:45;;;;;;;;;7.00;3.75;;;;;12.98;63.60;99908.84;5079418;28;69804;-40
2022/11/15 08:39:12;;;;;;;;;3.25;3.00;;;;;13.03;63.65;99913.84;5071758;27;64689;-40
2022/11/15 08:41:38;;;;;;;;;6.00;4.00;;;;;13.07;63.14;99904.91;5079774;27;45943;-40
2022/11/15 08:44:03;;;;;;;;;6.00;5.00;;;;;13.09;62.87;99901.25;5088044;27;59235;-40
2022/11/15 08:46:28;;;;;;;;;5.25;4.00;;;;;13.11;62.75;99898.56;5086388;27;45706;-41
2022/11/15 08:48:54;;;;;;;;;6.25;5.00;;;;;13.15;63.41;99896.63;5073557;28;66911;-41
2022/11/15 08:51:19;;;;;;;;;8.50;4.00;;;;;13.20;63.17;99892.00;5071835;27;45300;-40
2022/11/15 08:53:44;;;;;;;;;5.75;4.00;;;;;13.25;62.93;99890.81;5080785;27;45339;-40
2022/11/15 08:56:12;;;;;;;;;4.00;3.50;;;;;13.28;62.59;99880.16;5079413;27;49791;-40
2022/11/15 08:58:38;;;;;;;;;8.25;5.00;;;;;13.32;62.98;99875.63;5080530;27;45402;-40
2022/11/15 09:01:03;;;;;;;;;4.50;3.00;;;;;13.35;62.71;99872.84;5078651;28;45422;-40
2022/11/15 09:03:29;;;;;;;;;4.75;3.75;;;;;13.36;62.38;99864.00;5080748;28;45503;-40
2022/11/15 09:05:56;;;;;;;;;6.25;4.25;;;;;13.41;62.24;99861.16;5073883;27;45569;-40
2022/11/15 09:08:21;;;;;;;;;5.00;3.00;;;;;13.41;62.69;99856.72;5074272;28;46367;-40
2022/11/15 09:10:46;;;;;;;;;5.00;3.75;;;;;13.46;62.15;99853.88;5076346;28;46016;-40
2022/11/15 09:13:12;;;;;;;;;5.75;3.75;;;;;13.49;62.40;99851.06;5091557;27;45461;-40
2022/11/15 09:15:37;;;;;;;;;8.00;3.00;;;;;13.54;62.24;99845.56;5074998;27;72496;-40
2022/11/15 09:18:02;;;;;;;;;7.75;3.00;;;;;13.58;62.40;99854.97;5075358;27;45308;-40
2022/11/15 09:20:28;;;;;;;;;4.75;3.50;;;;;13.63;62.01;99852.97;5077813;27;65151;-40
2022/11/15 09:22:53;;;;;;;;;5.25;3.75;;;;;13.67;61.99;99857.13;5077410;28;66681;-40
2022/11/15 09:25:18;;;;;;;;;7.00;4.25;;;;;13.68;61.47;99843.03;5077758;27;45339;-40
2022/11/15 09:27:44;;;;;;;;;4.00;4.00;;;;;13.71;61.80;99856.03;5078094;28;67799;-40
2022/11/15 09:30:09;;;;;;;;;7.75;3.00;;;;;13.74;61.67;99847.97;5076421;27;68567;-40
2022/11/15 09:32:35;;;;;;;;;5.75;3.50;;;;;13.74;61.82;99842.72;5078288;27;45252;-40
2022/11/15 09:35:00;;;;;;;;;2.75;1.75;;;;;13.75;61.41;99843.56;5077516;27;45485;-39
2022/11/15 09:37:26;;;;;;;;;5.00;3.00;;;;;13.75;61.40;99841.78;5081300;27;46065;-40
2022/11/15 09:39:52;;;;;;;;;6.00;4.00;;;;;13.80;61.32;99849.44;5078704;27;61130;-39
2022/11/15 09:42:45;;;;;;;;;5.00;3.00;;;;;13.85;61.19;99848.22;5077509;27;45325;-39
2022/11/15 09:45:40;;;;;;;;;5.25;5.00;;;;;13.90;61.55;99850.63;5077120;28;45608;-40
2022/11/15 09:48:26;;;;;;;;;6.00;3.75;;;;;13.93;61.34;99839.91;5070499;27;45287;-40
2022/11/15 09:50:58;;;;;;;;;8.75;6.25;;;;;13.95;60.99;99845.09;5077458;27;45209;-40
2022/11/15 09:53:35;;;;;;;;;5.50;4.00;;;;;14.01;61.13;99844.78;5079820;27;45425;-40
2022/11/15 09:56:04;;;;;;;;;5.00;2.25;;;;;14.04;61.08;99842.81;5075300;28;45819;-40
2022/11/15 09:58:44;;;;;;;;;4.75;3.00;;;;;14.08;61.27;99855.78;5073523;28;46223;-40
2022/11/15 10:01:35;;;;;;;;;4.75;4.75;;;;;14.09;61.56;99846.97;5072801;28;45871;-40
2022/11/15 10:04:00;;;;;;;;;4.75;4.50;;;;;14.11;61.74;99847.72;5071733;27;45362;-40
2022/11/15 10:06:26;;;;;;;;;11.25;6.75;;;;;14.12;61.51;99837.13;5079171;27;48489;-40
2022/11/15 10:09:03;;;;;;;;;9.50;6.75;;;;;14.16;61.98;99832.53;5073529;28;47385;-40
2022/11/15 10:11:30;;;;;;;;;6.75;6.00;;;;;14.15;61.78;99822.94;5072141;28;46030;-41
2022/11/15 10:14:09;;;;;;;;;7.75;5.75;;;;;14.16;62.37;99814.09;5070239;28;45402;-40
2022/11/15 10:17:04;;;;;;;;;7.25;6.25;;;;;14.16;62.03;99822.00;5069788;27;45464;-40
2022/11/15 10:19:51;;;;;;;;;13.00;10.50;;;;;14.14;62.20;99816.81;5073055;27;45366;-40
2022/11/15 10:22:28;;;;;;;;;9.50;5.25;;;;;14.16;61.94;99808.84;5076578;28;45369;-40
2022/11/15 10:25:03;;;;;;;;;5.25;5.00;;;;;14.18;62.39;99786.78;5072610;27;45410;-39
2022/11/15 10:27:29;;;;;;;;;4.50;4.50;;;;;14.18;62.49;99780.66;5078996;27;45347;-40
2022/11/15 10:29:54;;;;;;;;;4.25;4.00;;;;;14.15;62.11;99776.44;5078138;27;72411;-42
2022/11/15 10:32:20;;;;;;;;;2.75;2.75;;;;;14.12;62.26;99773.97;5078837;27;70693;-39
2022/11/15 10:34:47;;;;;;;;;5.75;5.75;;;;;14.10;62.69;99767.94;5080346;27;45390;-41
2022/11/15 10:37:12;;;;;;;;;5.75;4.00;;;;;14.12;62.79;99779.22;5073833;27;45288;-40
2022/11/15 10:39:38;;;;;;;;;4.50;4.50;;;;;14.17;62.82;99773.72;5082145;27;62490;-40
2022/11/15 10:42:28;;;;;;;;;7.25;5.75;;;;;14.17;62.58;99756.13;5081589;27;45397;-40
2022/11/15 10:44:54;;;;;;;;;4.50;4.50;;;;;14.17;62.49;99758.75;5083165;27;45254;-40
2022/11/15 10:47:23;;;;;;;;;4.00;4.00;;;;;14.12;62.72;99750.28;5088958;27;45494;-40
2022/11/15 10:49:59;;;;;;;;;6.50;4.75;;;;;14.09;62.58;99744.34;5071314;28;46131;-39
2022/11/15 10:52:25;;;;;;;;;7.25;4.25;;;;;14.04;63.05;99747.25;5114235;27;45767;-39
2022/11/15 10:55:03;;;;;;;;;5.50;5.50;;;;;14.04;63.36;99744.59;5080187;27;45384;-39
2022/11/15 10:57:36;;;;;;;;;6.00;3.75;;;;;14.07;63.57;99736.53;5080418;27;45286;-40
2022/11/15 11:00:14;;;;;;;;;7.50;6.00;;;;;14.07;63.16;99727.81;5081243;27;45978;-39
2022/11/15 11:02:55;;;;;;;;;6.25;6.25;;;;;14.08;63.66;99719.84;5081573;27;45718;-39
2022/11/15 11:05:36;;;;;;;;;8.00;5.00;;;;;14.12;63.83;99712.63;5082203;27;45531;-40
2022/11/15 11:08:05;;;;;;;;;6.25;4.50;;;;;14.15;63.73;99715.06;5075173;27;45456;-40
2022/11/15 11:10:31;;;;;;;;;6.00;5.50;;;;;14.15;63.58;99707.19;5081104;28;45343;-40
2022/11/15 11:13:12;;;;;;;;;6.75;6.00;;;;;14.13;63.82;99712.53;5077631;27;45449;-40
2022/11/15 11:15:38;;;;;;;;;9.75;5.25;;;;;14.11;63.40;99700.38;5069648;28;45291;-39
2022/11/15 11:18:15;;;;;;;;;7.00;7.00;;;;;14.12;64.10;99699.47;5074482;27;69707;-38
2022/11/15 11:20:45;;;;;;;;;7.25;6.50;;;;;14.12;64.02;99689.78;5081395;28;46043;-40
2022/11/15 11:23:15;;;;;;;;;6.00;6.00;;;;;14.13;63.94;99685.34;5075510;28;45363;-40
2022/11/15 11:26:01;;;;;;;;;7.00;3.00;;;;;14.14;64.35;99682.63;5080742;27;45452;-40
2022/11/15 11:28:32;;;;;;;;;8.00;6.75;;;;;14.15;63.81;99686.97;5078120;27;45352;-40
2022/11/15 11:31:17;;;;;;;;;8.00;6.50;;;;;14.16;64.23;99677.28;5082134;27;46331;-40
2022/11/15 11:33:52;;;;;;;;;5.50;5.50;;;;;14.17;64.42;99686.88;5079051;27;45375;-41
2022/11/15 11:36:26;;;;;;;;;8.50;5.75;;;;;14.18;64.30;99678.91;5080622;27;45506;-40
2022/11/15 11:38:57;;;;;;;;;10.75;6.00;;;;;14.21;64.47;99683.13;5082078;28;45319;-40
2022/11/15 11:42:14;;;;;;;;;6.25;6.00;;;;;14.23;64.61;99668.09;5081078;27;46154;-40
2022/11/15 11:44:51;;;;;;;;;6.50;6.50;;;;;14.22;64.46;99672.50;5044733;28;45965;-41
2022/11/15 11:47:23;;;;;;;;;8.00;6.25;;;;;14.22;64.89;99669.88;5076082;27;45402;-40